Terminal Aerodrome Forecast
Issued by NWS

Home | Current Version | Previous Version | Graphics & Text | Print | Product List | Glossary On
Versions: 1 2 3 4 5 6 7 8 9 10 11 12 13 14 15 16 17 18 19 20 21 22 23 24 25 26 27 28 29 30 31
000
FTUS43 KGRB 241000 AAB
TAFCWA
TAF AMD
KCWA 241032Z 2411/2506 23003KT 1/2SM FG VV002
     FM241500 20004KT 3SM BR SCT005 BKN012
     FM241800 20005KT P6SM SCT020
     FM250300 19004KT 5SM BR BKN120
      AMD LTD TO CLD VIS AND WIND TIL 241200=

USA.gov is the U.S. government's official web portal to all federal, state and local government web resources and services.